createdAt,value
2018-05-23T00:01:40.401Z,6.18
2018-05-23T00:04:06.831Z,5.30
2018-05-23T00:06:33.222Z,5.95
2018-05-23T00:08:59.611Z,6.65
2018-05-23T00:11:26.395Z,5.70
2018-05-23T00:13:52.722Z,6.40
2018-05-23T00:16:19.100Z,5.65
2018-05-23T00:18:45.453Z,5.85
2018-05-23T00:21:12.513Z,5.40
2018-05-23T00:23:39.675Z,5.57
2018-05-23T00:26:06.228Z,5.62
2018-05-23T00:28:32.612Z,5.10
2018-05-23T00:30:58.979Z,5.72
2018-05-23T00:33:25.384Z,7.10
2018-05-23T00:35:52.458Z,5.95
2018-05-23T00:38:18.761Z,4.97
2018-05-23T00:40:45.116Z,5.65
2018-05-23T00:43:11.497Z,6.28
2018-05-23T00:45:38.652Z,7.95
2018-05-23T00:48:05.747Z,7.00
2018-05-23T00:50:32.082Z,5.68
2018-05-23T00:52:58.504Z,6.53
2018-05-23T00:55:32.678Z,5.78
2018-05-23T00:57:59.098Z,5.62
2018-05-23T01:00:26.277Z,5.20
2018-05-23T01:02:52.630Z,5.30
2018-05-23T01:05:19.021Z,7.03
2018-05-23T01:07:46.167Z,6.40
2018-05-23T01:10:13.465Z,5.20
2018-05-23T01:12:39.976Z,6.10
2018-05-23T01:15:06.374Z,6.60
2018-05-23T01:17:32.726Z,6.73
2018-05-23T01:19:59.905Z,6.37
2018-05-23T01:22:26.282Z,5.35
2018-05-23T01:24:52.626Z,6.25
2018-05-23T01:27:19.058Z,6.93
2018-05-23T01:29:45.414Z,6.55
2018-05-23T01:32:11.773Z,6.05
2018-05-23T01:34:38.177Z,6.45
2018-05-23T01:37:04.516Z,6.90
2018-05-23T01:39:30.912Z,7.12
2018-05-23T01:41:58.095Z,6.85
2018-05-23T01:44:24.438Z,7.35
2018-05-23T01:46:50.841Z,6.70
2018-05-23T01:49:25.472Z,6.70
2018-05-23T01:51:51.917Z,8.00
2018-05-23T01:54:18.362Z,5.90
2018-05-23T01:56:44.891Z,5.57
2018-05-23T01:59:11.252Z,5.93
2018-05-23T02:01:37.652Z,5.35
2018-05-23T02:04:04.158Z,6.10
2018-05-23T02:06:30.578Z,6.40
2018-05-23T02:08:57.746Z,6.30
2018-05-23T02:11:24.101Z,6.60
2018-05-23T02:13:50.619Z,7.32
2018-05-23T02:16:17.087Z,6.12
2018-05-23T02:18:43.567Z,6.72
2018-05-23T02:21:10.035Z,6.15
2018-05-23T02:23:40.777Z,6.87
2018-05-23T02:26:07.150Z,7.95
2018-05-23T02:28:33.631Z,7.82
2018-05-23T02:31:00.129Z,7.82
2018-05-23T02:33:26.493Z,8.13
2018-05-23T02:35:53.021Z,6.07
2018-05-23T02:38:19.359Z,7.05
2018-05-23T02:40:45.799Z,7.72
2018-05-23T02:43:12.949Z,6.55
2018-05-23T02:45:39.339Z,6.50
2018-05-23T02:48:05.797Z,6.22
2018-05-23T02:50:32.140Z,6.50
2018-05-23T02:52:58.519Z,6.75
2018-05-23T02:55:24.915Z,6.75
2018-05-23T02:57:51.616Z,8.95
2018-05-23T03:00:17.971Z,6.62
2018-05-23T03:02:44.467Z,6.20
2018-05-23T03:05:10.818Z,8.30
2018-05-23T03:07:37.247Z,6.05
2018-05-23T03:10:03.699Z,7.47
2018-05-23T03:12:30.170Z,8.10
2018-05-23T03:14:57.264Z,7.43
2018-05-23T03:17:23.619Z,8.18
2018-05-23T03:19:50.028Z,10.65
2018-05-23T03:22:16.379Z,8.75
2018-05-23T03:24:42.795Z,11.43
2018-05-23T03:27:09.167Z,9.70
2018-05-23T03:29:36.258Z,9.32
2018-05-23T03:32:02.719Z,9.80
2018-05-23T03:34:29.060Z,8.93
2018-05-23T03:36:55.378Z,10.05
2018-05-23T03:39:21.753Z,9.07
2018-05-23T03:41:48.867Z,10.95
2018-05-23T03:44:15.211Z,9.88
2018-05-23T03:46:41.635Z,9.57
2018-05-23T03:49:08.027Z,10.60
2018-05-23T03:51:34.476Z,12.02
2018-05-23T03:54:00.960Z,11.60
2018-05-23T03:56:27.295Z,12.95
2018-05-23T03:58:53.735Z,11.15
2018-05-23T04:01:38.662Z,12.95
2018-05-23T04:04:23.417Z,12.18
2018-05-23T04:09:58.239Z,12.05
2018-05-23T04:12:24.613Z,13.20
2018-05-23T04:14:51.754Z,12.57
2018-05-23T04:17:18.064Z,12.57
2018-05-23T04:19:44.536Z,13.05
2018-05-23T04:22:11.783Z,13.25
2018-05-23T04:24:38.942Z,12.00
2018-05-23T04:27:05.330Z,13.30
2018-05-23T04:29:31.692Z,13.20
2018-05-23T04:31:59.052Z,12.68
2018-05-23T04:34:26.190Z,11.70
2018-05-23T04:36:53.375Z,11.07
2018-05-23T04:39:19.873Z,13.50
2018-05-23T04:41:47.147Z,11.75
2018-05-23T04:44:13.807Z,12.80
2018-05-23T04:46:40.109Z,11.60
2018-05-23T04:49:06.478Z,12.70
2018-05-23T04:51:32.842Z,15.07
2018-05-23T04:53:59.699Z,13.23
2018-05-23T04:56:27.051Z,13.30
2018-05-23T04:58:54.150Z,14.82
2018-05-23T05:01:20.550Z,17.33
2018-05-23T05:03:47.021Z,19.10
2018-05-23T05:06:13.389Z,23.10
2018-05-23T05:08:40.533Z,18.30
2018-05-23T05:11:07.695Z,19.73
2018-05-23T05:13:34.056Z,17.43
2018-05-23T05:16:00.453Z,19.45
2018-05-23T05:18:27.536Z,16.00
2018-05-23T05:20:53.914Z,14.10
2018-05-23T05:23:21.009Z,14.38
2018-05-23T05:25:47.441Z,16.15
2018-05-23T05:28:13.893Z,15.82
2018-05-23T05:30:40.355Z,17.75
2018-05-23T05:33:06.732Z,16.00
2018-05-23T05:35:33.117Z,14.55
2018-05-23T05:38:00.258Z,16.37
2018-05-23T05:40:26.673Z,16.42
2018-05-23T05:42:53.073Z,19.20
2018-05-23T05:45:19.518Z,17.77
2018-05-23T05:47:45.915Z,20.50
2018-05-23T05:50:12.395Z,16.55
2018-05-23T05:52:38.829Z,16.23
2018-05-23T05:55:05.575Z,19.33
2018-05-23T05:57:31.938Z,20.73
2018-05-23T05:59:59.201Z,18.80
2018-05-23T06:02:25.591Z,19.37
2018-05-23T06:04:56.642Z,18.50
2018-05-23T06:07:23.035Z,18.58
2018-05-23T06:09:49.441Z,18.65
2018-05-23T06:12:15.926Z,20.67
2018-05-23T06:14:42.381Z,23.08
2018-05-23T06:17:09.675Z,19.48
2018-05-23T06:19:36.213Z,18.47
2018-05-23T06:22:03.118Z,20.83
2018-05-23T06:24:30.288Z,19.67
2018-05-23T06:26:56.690Z,19.90
2018-05-23T06:29:23.882Z,18.97
2018-05-23T06:31:50.205Z,20.00
2018-05-23T06:34:16.594Z,18.13
2018-05-23T06:36:42.943Z,18.57
2018-05-23T06:39:09.604Z,21.77
2018-05-23T06:41:35.961Z,17.27
2018-05-23T06:44:02.405Z,16.07
2018-05-23T06:46:28.739Z,23.70
2018-05-23T06:48:56.921Z,25.97
2018-05-23T06:51:23.274Z,21.23
2018-05-23T06:53:50.407Z,18.73
2018-05-23T06:56:16.852Z,24.77
2018-05-23T06:58:44.005Z,18.43
2018-05-23T07:01:11.117Z,18.30
2018-05-23T07:03:38.294Z,19.70
2018-05-23T07:06:05.411Z,18.10
2018-05-23T07:08:32.037Z,17.87
2018-05-23T07:10:58.816Z,19.87
2018-05-23T07:13:25.154Z,21.60
2018-05-23T07:15:52.314Z,21.70
2018-05-23T07:18:18.692Z,20.53
2018-05-23T07:20:45.122Z,24.13
2018-05-23T07:23:11.971Z,22.40
2018-05-23T07:25:38.342Z,23.13
2018-05-23T07:28:05.598Z,21.90
2018-05-23T07:30:31.990Z,26.03
2018-05-23T07:33:02.572Z,25.33
2018-05-23T07:35:29.087Z,24.83
2018-05-23T07:37:55.482Z,25.37
2018-05-23T07:40:21.851Z,26.00
2018-05-23T07:42:48.269Z,27.00
2018-05-23T07:45:14.931Z,25.10
2018-05-23T07:47:41.500Z,28.50
2018-05-23T07:50:07.835Z,32.03
2018-05-23T07:52:34.264Z,26.03
2018-05-23T07:55:00.709Z,27.33
2018-05-23T07:57:27.122Z,28.70
2018-05-23T07:59:53.573Z,27.53
2018-05-23T08:02:20.035Z,29.97
2018-05-23T08:04:47.132Z,26.93
2018-05-23T08:07:13.541Z,26.37
2018-05-23T08:09:39.894Z,29.13
2018-05-23T08:12:06.312Z,26.47
2018-05-23T08:14:32.722Z,29.20
2018-05-23T08:16:59.151Z,29.37
2018-05-23T08:19:31.455Z,27.93
2018-05-23T08:21:57.842Z,32.53
2018-05-23T08:24:24.332Z,29.50
2018-05-23T08:26:50.700Z,29.60
2018-05-23T08:29:18.258Z,36.47
2018-05-23T08:31:45.321Z,36.10
2018-05-23T08:34:12.659Z,35.13
2018-05-23T08:36:39.189Z,36.13
2018-05-23T08:39:06.361Z,33.57
2018-05-23T08:41:33.603Z,34.90
2018-05-23T08:44:00.918Z,32.50
2018-05-23T08:46:27.298Z,29.33
2018-05-23T08:48:53.989Z,33.43
2018-05-23T08:51:20.515Z,30.30
2018-05-23T08:53:46.975Z,33.57
2018-05-23T08:56:13.378Z,34.87
2018-05-23T08:58:39.872Z,34.87
2018-05-23T09:01:06.515Z,32.57
2018-05-23T09:03:32.938Z,32.73
2018-05-23T09:05:59.664Z,34.90
2018-05-23T09:08:26.073Z,29.80
2018-05-23T09:10:52.451Z,32.47
2018-05-23T09:13:18.986Z,31.63
2018-05-23T09:15:45.344Z,33.83
2018-05-23T09:18:11.749Z,32.33
2018-05-23T09:20:38.165Z,29.50
2018-05-23T09:23:04.621Z,32.40
2018-05-23T09:25:31.103Z,29.57
2018-05-23T09:27:57.401Z,29.80
2018-05-23T09:30:23.779Z,26.57
2018-05-23T09:32:50.953Z,27.83
2018-05-23T09:35:17.899Z,24.87
2018-05-23T09:37:44.400Z,21.60
2018-05-23T09:40:11.642Z,23.50
2018-05-23T09:42:37.968Z,20.43
2018-05-23T09:45:04.397Z,21.90
2018-05-23T09:47:31.043Z,24.63
2018-05-23T09:49:57.378Z,24.33
2018-05-23T09:52:24.699Z,25.60
2018-05-23T09:54:51.156Z,25.27
2018-05-23T09:57:18.421Z,26.63
2018-05-23T09:59:45.959Z,23.50
2018-05-23T10:02:12.485Z,24.37
2018-05-23T10:04:38.900Z,23.87
2018-05-23T10:07:05.340Z,32.63
2018-05-23T10:09:31.791Z,24.40
2018-05-23T10:11:58.271Z,26.10
2018-05-23T10:14:24.981Z,25.10
2018-05-23T10:16:52.090Z,26.50
2018-05-23T10:19:18.479Z,26.47
2018-05-23T10:21:44.934Z,24.60
2018-05-23T10:24:11.287Z,23.93
2018-05-23T10:26:37.652Z,24.23
2018-05-23T10:29:04.144Z,24.33
2018-05-23T10:31:30.550Z,28.70
2018-05-23T10:33:56.964Z,26.23
2018-05-23T10:36:23.370Z,26.93
2018-05-23T10:38:50.581Z,27.37
2018-05-23T10:41:17.021Z,26.43
2018-05-23T10:43:43.646Z,27.13
2018-05-23T10:46:10.015Z,26.97
2018-05-23T10:48:36.442Z,28.20
2018-05-23T10:51:02.792Z,27.10
2018-05-23T10:53:29.234Z,26.73
2018-05-23T10:55:55.648Z,27.70
2018-05-23T10:58:24.080Z,26.40
2018-05-23T11:00:50.558Z,24.67
2018-05-23T11:03:16.983Z,28.97
2018-05-23T11:05:43.368Z,27.43
2018-05-23T11:08:10.480Z,26.97
2018-05-23T11:10:37.694Z,26.60
2018-05-23T11:13:04.164Z,29.43
2018-05-23T11:15:31.300Z,26.83
2018-05-23T11:17:58.195Z,28.70
2018-05-23T11:20:28.728Z,26.90
2018-05-23T11:23:00.227Z,28.27
2018-05-23T11:25:30.969Z,33.10
2018-05-23T11:28:05.447Z,28.93
2018-05-23T11:30:36.957Z,29.63
2018-05-23T11:33:07.669Z,28.10
2018-05-23T11:35:46.790Z,29.20
2018-05-23T11:38:14.059Z,26.50
2018-05-23T11:40:59.037Z,28.17
2018-05-23T11:43:34.254Z,29.53
2018-05-23T11:46:06.647Z,30.10
2018-05-23T11:48:43.103Z,26.37
2018-05-23T11:53:42.815Z,25.90
2018-05-23T11:56:12.346Z,26.30
2018-05-23T11:58:38.902Z,26.53
2018-05-23T12:01:05.349Z,26.53
2018-05-23T12:03:31.754Z,23.57
2018-05-23T12:05:58.138Z,27.50
2018-05-23T12:08:26.961Z,32.83
2018-05-23T12:13:37.142Z,26.70
2018-05-23T12:18:43.746Z,27.07
2018-05-23T12:21:12.091Z,26.33
2018-05-23T12:23:39.335Z,25.90
2018-05-23T12:26:05.817Z,28.07
2018-05-23T12:28:32.193Z,27.90
2018-05-23T12:30:58.641Z,27.03
2018-05-23T12:33:25.038Z,24.30
2018-05-23T12:36:06.862Z,24.30
2018-05-23T12:38:39.297Z,22.97
2018-05-23T12:41:07.308Z,25.13
2018-05-23T12:46:06.427Z,23.93
2018-05-23T12:48:32.912Z,27.03
2018-05-23T12:51:00.309Z,25.63
2018-05-23T12:53:26.744Z,26.70
2018-05-23T12:55:53.400Z,26.47
2018-05-23T12:58:19.814Z,24.30
2018-05-23T13:00:48.905Z,24.63
2018-05-23T13:03:15.970Z,24.23
2018-05-23T13:05:42.379Z,25.73
2018-05-23T13:08:24.956Z,24.70
2018-05-23T13:10:58.649Z,26.37
2018-05-23T13:13:33.750Z,23.70
2018-05-23T13:16:05.567Z,24.23
2018-05-23T13:18:46.392Z,21.10
2018-05-23T13:21:32.362Z,22.40
2018-05-23T13:23:58.746Z,21.80
2018-05-23T13:26:26.040Z,21.80
2018-05-23T13:28:58.251Z,21.90
2018-05-23T13:31:24.619Z,20.57
2018-05-23T13:33:50.964Z,19.23
2018-05-23T13:36:17.451Z,21.10
2018-05-23T13:38:43.825Z,19.73
2018-05-23T13:41:10.156Z,22.13
2018-05-23T13:43:36.498Z,18.90
2018-05-23T13:46:04.293Z,20.40
2018-05-23T13:48:32.114Z,19.90
2018-05-23T13:50:59.256Z,17.30
2018-05-23T13:53:25.852Z,18.47
2018-05-23T13:55:53.042Z,18.03
2018-05-23T13:58:19.372Z,17.97
2018-05-23T14:00:45.861Z,17.80
2018-05-23T14:03:13.035Z,19.53
2018-05-23T14:05:39.419Z,18.17
2018-05-23T14:08:05.809Z,16.70
2018-05-23T14:10:32.254Z,17.70
2018-05-23T14:12:58.650Z,13.83
2018-05-23T14:15:26.145Z,14.13
2018-05-23T14:17:52.555Z,15.50
2018-05-23T14:20:19.002Z,13.37
2018-05-23T14:22:45.432Z,15.13
2018-05-23T14:25:11.780Z,12.23
2018-05-23T14:27:39.896Z,13.73
2018-05-23T14:30:07.217Z,13.53
2018-05-23T14:32:33.690Z,13.77
2018-05-23T14:35:00.080Z,12.27
2018-05-23T14:37:30.637Z,13.33
2018-05-23T14:39:57.779Z,11.70
2018-05-23T14:42:25.022Z,13.67
2018-05-23T14:44:51.370Z,12.87
2018-05-23T14:47:18.490Z,13.57
2018-05-23T14:49:45.983Z,15.33
2018-05-23T14:52:13.151Z,14.10
2018-05-23T14:54:39.582Z,16.13
2018-05-23T14:57:06.167Z,14.27
2018-05-23T14:59:32.562Z,16.50
2018-05-23T15:01:59.685Z,15.30
2018-05-23T15:04:26.757Z,15.17
2018-05-23T15:06:53.142Z,15.60
2018-05-23T15:09:19.473Z,18.37
2018-05-23T15:11:46.659Z,17.70
2018-05-23T15:14:13.121Z,18.57
2018-05-23T15:16:40.017Z,18.93
2018-05-23T15:19:06.379Z,18.27
2018-05-23T15:21:32.731Z,17.60
2018-05-23T15:23:59.121Z,17.23
2018-05-23T15:26:25.699Z,16.20
2018-05-23T15:28:52.092Z,16.77
2018-05-23T15:31:18.519Z,14.93
2018-05-23T15:33:44.908Z,13.50
2018-05-23T15:36:11.465Z,13.47
2018-05-23T15:38:38.713Z,13.77
2018-05-23T15:41:05.881Z,13.80
2018-05-23T15:43:32.556Z,12.03
2018-05-23T15:45:59.023Z,12.20
2018-05-23T15:48:26.188Z,12.50
2018-05-23T15:50:53.282Z,12.03
2018-05-23T15:53:19.646Z,15.20
2018-05-23T15:55:45.997Z,11.97
2018-05-23T15:58:13.072Z,12.50
2018-05-23T16:00:39.587Z,13.60
2018-05-23T16:03:06.028Z,13.87
2018-05-23T16:05:32.485Z,12.20
2018-05-23T16:07:58.856Z,11.60
2018-05-23T16:10:26.118Z,14.17
2018-05-23T16:12:53.736Z,13.17
2018-05-23T16:15:20.142Z,13.60
2018-05-23T16:17:46.598Z,14.83
2018-05-23T16:20:13.061Z,15.60
2018-05-23T16:22:39.843Z,13.47
2018-05-23T16:25:06.350Z,13.07
2018-05-23T16:27:32.686Z,14.10
2018-05-23T16:29:59.122Z,11.87
2018-05-23T16:32:25.531Z,13.83
2018-05-23T16:34:52.611Z,12.17
2018-05-23T16:37:18.964Z,11.33
2018-05-23T16:39:45.341Z,10.60
2018-05-23T16:42:12.570Z,11.10
2018-05-23T16:44:39.011Z,9.90
2018-05-23T16:47:05.356Z,10.30
2018-05-23T16:49:32.442Z,8.77
2018-05-23T16:51:58.983Z,10.00
2018-05-23T16:54:25.431Z,7.93
2018-05-23T16:56:51.774Z,8.07
2018-05-23T16:59:18.233Z,8.00
2018-05-23T17:01:45.367Z,7.40
2018-05-23T17:04:11.725Z,7.90
2018-05-23T17:06:38.160Z,7.27
2018-05-23T17:09:05.463Z,6.20
2018-05-23T17:11:32.046Z,6.00
2018-05-23T17:13:58.718Z,6.30
2018-05-23T17:16:25.187Z,5.47
2018-05-23T17:18:51.747Z,7.93
2018-05-23T17:21:18.121Z,5.20
2018-05-23T17:23:44.549Z,7.93
2018-05-23T17:26:10.899Z,15.60
2018-05-23T17:28:37.396Z,13.50
2018-05-23T17:31:03.819Z,9.97
2018-05-23T17:33:30.375Z,11.10
2018-05-23T17:35:57.537Z,7.73
2018-05-23T17:38:23.979Z,11.03
2018-05-23T17:40:50.427Z,6.72
2018-05-23T17:43:17.972Z,7.68
2018-05-23T17:45:44.516Z,7.60
2018-05-23T17:48:10.877Z,8.25
2018-05-23T17:50:37.408Z,7.50
2018-05-23T17:53:03.799Z,9.00
2018-05-23T17:55:30.200Z,7.12
2018-05-23T17:57:56.603Z,6.90
2018-05-23T18:00:23.042Z,9.77
2018-05-23T18:02:49.658Z,10.83
2018-05-23T18:05:16.908Z,8.60
2018-05-23T18:07:43.744Z,11.00
2018-05-23T18:10:10.291Z,7.95
2018-05-23T18:12:36.666Z,10.77
2018-05-23T18:15:03.614Z,12.05
2018-05-23T18:17:30.135Z,11.40
2018-05-23T18:19:56.563Z,11.63
2018-05-23T18:22:22.924Z,11.88
2018-05-23T18:24:49.540Z,12.80
2018-05-23T18:27:16.304Z,12.98
2018-05-23T18:29:43.187Z,11.67
2018-05-23T18:32:10.494Z,11.33
2018-05-23T18:34:36.903Z,12.40
2018-05-23T18:37:03.983Z,13.55
2018-05-23T18:39:30.416Z,12.80
2018-05-23T18:41:57.639Z,12.88
2018-05-23T18:44:24.023Z,13.20
2018-05-23T18:46:51.222Z,13.60
2018-05-23T18:49:17.756Z,14.00
2018-05-23T18:51:44.248Z,12.25
2018-05-23T18:54:10.941Z,11.77
2018-05-23T18:56:37.456Z,12.50
2018-05-23T18:59:03.965Z,10.60
2018-05-23T19:01:30.635Z,10.90
2018-05-23T19:03:57.076Z,12.17
2018-05-23T19:06:23.472Z,11.65
2018-05-23T19:08:50.139Z,11.20
2018-05-23T19:11:16.631Z,9.90
2018-05-23T19:13:43.332Z,12.50
2018-05-23T19:16:09.883Z,11.75
2018-05-23T19:18:36.395Z,12.70
2018-05-23T19:21:02.691Z,13.10
2018-05-23T19:23:29.034Z,12.60
2018-05-23T19:25:55.760Z,12.02
2018-05-23T19:28:22.231Z,12.07
2018-05-23T19:30:48.619Z,13.43
2018-05-23T19:33:15.335Z,14.10
2018-05-23T19:35:41.756Z,13.60
2018-05-23T19:38:08.143Z,15.15
2018-05-23T19:40:35.664Z,15.38
2018-05-23T19:43:02.215Z,16.35
2018-05-23T19:45:28.606Z,17.35
2018-05-23T19:47:55.722Z,17.35
2018-05-23T19:50:22.096Z,16.55
2018-05-23T19:52:48.703Z,16.45
2018-05-23T19:55:14.885Z,16.70
2018-05-23T19:57:41.630Z,16.60
2018-05-23T20:00:08.218Z,17.87
2018-05-23T20:02:36.027Z,17.10
2018-05-23T20:05:06.735Z,17.85
2018-05-23T20:07:33.180Z,20.08
2018-05-23T20:09:59.634Z,19.48
2018-05-23T20:12:26.024Z,19.05
2018-05-23T20:14:53.110Z,20.05
2018-05-23T20:17:20.280Z,18.95
2018-05-23T20:19:46.634Z,18.77
2018-05-23T20:22:13.895Z,17.62
2018-05-23T20:24:40.994Z,20.90
2018-05-23T20:27:07.476Z,18.37
2018-05-23T20:29:34.699Z,19.70
2018-05-23T20:32:01.127Z,19.92
2018-05-23T20:34:27.525Z,19.95
2018-05-23T20:36:53.975Z,19.58
2018-05-23T20:39:20.309Z,21.80
2018-05-23T20:41:47.390Z,20.62
2018-05-23T20:44:15.029Z,20.25
2018-05-23T20:46:41.443Z,18.33
2018-05-23T20:49:07.939Z,19.73
2018-05-23T20:51:34.267Z,18.83
2018-05-23T20:54:00.655Z,18.77
2018-05-23T20:56:26.997Z,18.87
2018-05-23T20:58:53.479Z,18.70
2018-05-23T21:01:19.765Z,18.73
2018-05-23T21:03:46.871Z,19.60
2018-05-23T21:06:13.341Z,19.35
2018-05-23T21:08:40.606Z,18.05
2018-05-23T21:11:07.707Z,20.00
2018-05-23T21:13:34.061Z,19.90
2018-05-23T21:16:00.515Z,19.33
2018-05-23T21:18:26.991Z,18.70
2018-05-23T21:20:54.131Z,16.35
2018-05-23T21:23:20.595Z,16.40
2018-05-23T21:25:47.009Z,17.73
2018-05-23T21:28:13.498Z,13.55
2018-05-23T21:30:39.919Z,14.38
2018-05-23T21:33:07.005Z,16.05
2018-05-23T21:35:33.388Z,16.27
2018-05-23T21:37:59.794Z,16.67
2018-05-23T21:40:26.172Z,16.87
2018-05-23T21:42:53.267Z,18.12
2018-05-23T21:45:19.805Z,18.55
2018-05-23T21:47:46.238Z,17.00
2018-05-23T21:50:12.607Z,15.80
2018-05-23T21:52:39.720Z,16.52
2018-05-23T21:55:06.133Z,14.70
2018-05-23T21:57:32.550Z,15.85
2018-05-23T21:59:58.958Z,15.75
2018-05-23T22:02:26.083Z,14.87
2018-05-23T22:04:52.435Z,15.52
2018-05-23T22:07:19.512Z,15.23
2018-05-23T22:09:45.915Z,15.27
2018-05-23T22:12:13.067Z,15.88
2018-05-23T22:14:39.449Z,19.30
2018-05-23T22:17:05.873Z,14.07
2018-05-23T22:19:32.256Z,12.82
2018-05-23T22:21:59.342Z,13.80
2018-05-23T22:24:25.765Z,14.60
2018-05-23T22:26:52.183Z,14.10
2018-05-23T22:29:18.606Z,13.68
2018-05-23T22:31:45.713Z,14.05
2018-05-23T22:34:12.167Z,14.27
2018-05-23T22:36:38.572Z,16.80
2018-05-23T22:39:04.968Z,13.85
2018-05-23T22:41:39.187Z,14.90
2018-05-23T22:44:07.310Z,15.52
2018-05-23T22:46:43.385Z,13.57
2018-05-23T22:49:12.656Z,15.00
2018-05-23T22:51:47.603Z,14.45
2018-05-23T22:54:13.905Z,14.63
2018-05-23T22:56:40.312Z,16.67
2018-05-23T22:59:14.927Z,15.43
2018-05-23T23:01:44.851Z,15.40
2018-05-23T23:04:15.694Z,15.77
2018-05-23T23:06:45.393Z,13.00
2018-05-23T23:09:18.463Z,14.87
2018-05-23T23:11:53.801Z,14.03
2018-05-23T23:14:25.803Z,18.60
2018-05-23T23:16:53.096Z,18.60
2018-05-23T23:19:25.709Z,16.50
2018-05-23T23:21:53.579Z,14.37
2018-05-23T23:24:19.948Z,15.38
2018-05-23T23:26:48.766Z,16.85
2018-05-23T23:29:15.085Z,15.65
2018-05-23T23:31:42.773Z,16.92
2018-05-23T23:34:09.619Z,15.48
2018-05-23T23:36:39.962Z,15.55
2018-05-23T23:39:06.324Z,16.02
2018-05-23T23:41:33.488Z,13.97
2018-05-23T23:44:06.199Z,15.00
2018-05-23T23:46:32.558Z,16.20
2018-05-23T23:49:05.802Z,15.98
2018-05-23T23:51:32.123Z,13.65
2018-05-23T23:54:03.384Z,15.15
2018-05-23T23:56:30.344Z,14.30
2018-05-23T23:59:02.682Z,16.25
